Time;durP1;ratioP1;P1;durP2;ratioP2;P2;SDS_P1;SDS_P2;PMS_P1;PMS_P2;Temp;Humidity;BMP_temperature;BMP_pressure;BME280_temperature;BME280_humidity;BME280_pressure;Samples;Min_cycle;Max_cycle;Signal;HPM_P1;HPM_P2
2021/05/24 00:01:47;;;;;;;;;;;20.20;55.60;;;;;;5039644;28;20011;-52
2021/05/24 00:04:12;;;;;;;;;;;20.10;55.50;;;;;;5035535;28;19943;-53
2021/05/24 00:06:38;;;;;;;;;;;20.10;55.50;;;;;;5006052;28;20580;-57
2021/05/24 00:09:03;;;;;;;;;;;20.20;55.50;;;;;;5026808;28;19936;-56
2021/05/24 00:11:30;;;;;;;;;;;20.20;55.50;;;;;;5027338;28;19956;-53
2021/05/24 00:13:56;;;;;;;;;;;20.10;55.50;;;;;;5026404;28;20263;-55
2021/05/24 00:16:22;;;;;;;;;;;20.10;55.50;;;;;;5025320;28;20811;-52
2021/05/24 00:18:50;;;;;;;;;;;20.10;55.40;;;;;;5029357;28;19925;-54
2021/05/24 00:21:17;;;;;;;;;;;20.10;55.40;;;;;;5028134;28;20321;-54
2021/05/24 00:23:42;;;;;;;;;;;20.10;55.40;;;;;;5032824;28;19920;-57
2021/05/24 00:26:08;;;;;;;;;;;20.10;55.40;;;;;;5039450;28;20843;-56
2021/05/24 00:28:33;;;;;;;;;;;20.10;55.50;;;;;;5032158;28;20137;-56
2021/05/24 00:30:58;;;;;;;;;;;20.10;55.40;;;;;;5032401;28;19917;-56
2021/05/24 00:33:24;;;;;;;;;;;20.10;55.40;;;;;;5035153;28;19923;-56
2021/05/24 00:35:49;;;;;;;;;;;20.10;55.40;;;;;;5033410;28;20339;-52
2021/05/24 00:38:15;;;;;;;;;;;20.10;55.40;;;;;;5033473;28;19920;-57
2021/05/24 00:40:40;;;;;;;;;;;20.10;55.40;;;;;;5018763;28;19927;-55
2021/05/24 00:43:06;;;;;;;;;;;20.10;55.50;;;;;;5026276;28;19917;-57
2021/05/24 00:45:32;;;;;;;;;;;20.10;55.40;;;;;;5031161;28;20003;-57
2021/05/24 00:47:57;;;;;;;;;;;20.10;55.40;;;;;;5040143;28;20385;-53
2021/05/24 00:50:22;;;;;;;;;;;20.10;55.40;;;;;;5034626;28;19975;-54
2021/05/24 00:52:48;;;;;;;;;;;20.10;55.40;;;;;;5029405;28;19921;-55
2021/05/24 00:55:13;;;;;;;;;;;20.10;55.40;;;;;;5030845;28;20349;-54
2021/05/24 00:57:39;;;;;;;;;;;20.10;55.40;;;;;;5030106;28;19918;-56
2021/05/24 01:00:05;;;;;;;;;;;20.10;55.40;;;;;;5026889;28;19944;-54
2021/05/24 01:02:31;;;;;;;;;;;20.10;55.30;;;;;;5040721;28;19957;-57
2021/05/24 01:04:56;;;;;;;;;;;20.10;55.30;;;;;;5041727;28;19917;-55
2021/05/24 01:07:22;;;;;;;;;;;20.10;55.30;;;;;;5030124;28;19928;-55
2021/05/24 01:09:47;;;;;;;;;;;20.10;55.30;;;;;;5035908;28;19970;-54
2021/05/24 01:12:12;;;;;;;;;;;20.10;55.30;;;;;;5028680;28;19917;-54
2021/05/24 01:14:38;;;;;;;;;;;20.10;55.30;;;;;;5029673;28;19917;-58
2021/05/24 01:17:03;;;;;;;;;;;20.10;55.40;;;;;;5031152;28;20355;-55
2021/05/24 01:19:29;;;;;;;;;;;20.00;55.20;;;;;;5009544;28;20007;-56
2021/05/24 01:21:54;;;;;;;;;;;20.10;55.30;;;;;;5036104;28;19923;-54
2021/05/24 01:24:20;;;;;;;;;;;20.00;55.20;;;;;;5015192;28;19971;-53
2021/05/24 01:26:45;;;;;;;;;;;20.10;55.20;;;;;;5030934;28;20493;-54
2021/05/24 01:29:11;;;;;;;;;;;20.00;55.20;;;;;;5008930;28;19991;-54
2021/05/24 01:31:36;;;;;;;;;;;20.00;55.20;;;;;;5018137;28;19948;-55
2021/05/24 01:34:02;;;;;;;;;;;20.00;55.20;;;;;;5033097;28;19917;-52
2021/05/24 01:36:28;;;;;;;;;;;20.00;55.10;;;;;;5037184;28;19924;-55
2021/05/24 01:38:53;;;;;;;;;;;20.00;55.20;;;;;;5032973;28;19945;-56
2021/05/24 01:41:19;;;;;;;;;;;20.00;55.40;;;;;;5030055;28;20366;-57
2021/05/24 01:43:44;;;;;;;;;;;20.00;55.10;;;;;;5021455;28;19916;-54
2021/05/24 01:46:10;;;;;;;;;;;20.00;55.00;;;;;;5032667;28;19917;-52
2021/05/24 01:48:35;;;;;;;;;;;20.00;55.00;;;;;;5034733;28;19971;-57
2021/05/24 01:51:01;;;;;;;;;;;20.00;55.00;;;;;;5033022;28;19952;-56
2021/05/24 01:53:26;;;;;;;;;;;20.00;55.00;;;;;;5015427;28;20356;-55
2021/05/24 01:55:52;;;;;;;;;;;20.00;55.00;;;;;;5031515;28;19925;-53
2021/05/24 01:58:17;;;;;;;;;;;20.00;55.00;;;;;;5031574;28;19917;-58
2021/05/24 02:00:43;;;;;;;;;;;20.00;55.00;;;;;;5039689;28;20306;-57
2021/05/24 02:03:08;;;;;;;;;;;20.00;54.90;;;;;;5035188;28;19979;-54
2021/05/24 02:05:34;;;;;;;;;;;20.00;54.90;;;;;;5035308;28;20798;-57
2021/05/24 02:07:59;;;;;;;;;;;20.00;54.90;;;;;;5027698;28;19917;-57
2021/05/24 02:10:26;;;;;;;;;;;20.00;54.90;;;;;;5025733;28;19925;-56
2021/05/24 02:12:51;;;;;;;;;;;20.00;54.90;;;;;;5015772;28;19924;-56
2021/05/24 02:15:18;;;;;;;;;;;20.00;55.00;;;;;;5013056;28;20384;-52
2021/05/24 02:17:43;;;;;;;;;;;20.00;55.00;;;;;;5031083;28;19933;-54
2021/05/24 02:20:11;;;;;;;;;;;20.00;54.90;;;;;;5018090;28;19916;-52
2021/05/24 02:22:36;;;;;;;;;;;20.00;55.00;;;;;;5030643;28;19917;-55
2021/05/24 02:25:02;;;;;;;;;;;20.00;55.00;;;;;;5029755;28;19925;-55
2021/05/24 02:27:27;;;;;;;;;;;20.00;55.00;;;;;;4992327;28;19921;-56
2021/05/24 02:29:53;;;;;;;;;;;20.00;55.00;;;;;;5017375;28;19923;-52
2021/05/24 02:32:18;;;;;;;;;;;20.00;55.00;;;;;;5031206;28;20511;-53
2021/05/24 02:34:44;;;;;;;;;;;20.00;55.00;;;;;;5013085;28;19918;-54
2021/05/24 02:37:09;;;;;;;;;;;20.00;55.00;;;;;;5037110;28;19917;-53
2021/05/24 02:39:34;;;;;;;;;;;20.00;54.90;;;;;;5033334;28;19932;-52
2021/05/24 02:42:00;;;;;;;;;;;20.00;55.00;;;;;;5029992;28;20341;-53
2021/05/24 02:44:25;;;;;;;;;;;20.00;55.00;;;;;;5026580;28;19933;-54
2021/05/24 02:46:51;;;;;;;;;;;20.00;55.00;;;;;;5031812;28;19967;-55
2021/05/24 02:49:16;;;;;;;;;;;20.00;55.10;;;;;;5030765;28;19917;-54
2021/05/24 02:51:42;;;;;;;;;;;20.00;55.00;;;;;;5031348;28;19917;-55
2021/05/24 02:54:07;;;;;;;;;;;20.00;55.00;;;;;;5034252;28;19925;-54
2021/05/24 02:56:33;;;;;;;;;;;19.90;55.00;;;;;;5004941;28;19925;-57
2021/05/24 02:58:58;;;;;;;;;;;19.90;54.90;;;;;;5030589;28;19921;-55
2021/05/24 03:01:26;;;;;;;;;;;19.90;55.00;;;;;;5026434;28;19935;-55
2021/05/24 03:03:57;;;;;;;;;;;19.90;54.90;;;;;;5036841;28;19929;-55
2021/05/24 03:06:22;;;;;;;;;;;19.90;54.90;;;;;;5011326;28;20365;-54
2021/05/24 03:08:48;;;;;;;;;;;19.90;54.90;;;;;;5026427;28;19917;-53
2021/05/24 03:11:14;;;;;;;;;;;19.90;54.90;;;;;;5030952;28;19917;-54
2021/05/24 03:13:39;;;;;;;;;;;20.00;54.90;;;;;;5032734;28;19917;-55
2021/05/24 03:16:05;;;;;;;;;;;19.90;54.90;;;;;;5029948;28;19943;-52
2021/05/24 03:18:30;;;;;;;;;;;19.90;54.80;;;;;;5030044;28;19927;-51
2021/05/24 03:20:56;;;;;;;;;;;19.90;54.90;;;;;;5034122;28;19917;-58
2021/05/24 03:23:21;;;;;;;;;;;20.00;54.90;;;;;;5030482;28;19917;-58
2021/05/24 03:25:46;;;;;;;;;;;19.90;54.90;;;;;;5032147;28;19931;-56
2021/05/24 03:28:12;;;;;;;;;;;19.90;54.90;;;;;;5034902;28;20357;-55
2021/05/24 03:30:37;;;;;;;;;;;19.90;54.80;;;;;;5031519;28;20000;-56
2021/05/24 03:33:03;;;;;;;;;;;19.90;54.90;;;;;;5027642;28;19928;-53
2021/05/24 03:35:28;;;;;;;;;;;19.90;54.90;;;;;;5013159;28;19983;-55
2021/05/24 03:37:54;;;;;;;;;;;19.90;54.80;;;;;;5027195;28;19924;-58
2021/05/24 03:40:19;;;;;;;;;;;19.90;54.80;;;;;;5032282;28;19920;-55
2021/05/24 03:42:45;;;;;;;;;;;19.90;54.80;;;;;;5033264;28;19917;-55
2021/05/24 03:45:12;;;;;;;;;;;19.90;54.80;;;;;;5011939;28;20326;-55
2021/05/24 03:47:37;;;;;;;;;;;19.90;54.80;;;;;;5014925;28;20016;-55
2021/05/24 03:50:03;;;;;;;;;;;19.90;54.80;;;;;;5034595;28;19935;-56
2021/05/24 03:52:29;;;;;;;;;;;19.90;54.80;;;;;;5035041;28;20376;-53
2021/05/24 03:54:55;;;;;;;;;;;19.90;54.80;;;;;;5029037;28;19927;-55
2021/05/24 03:57:20;;;;;;;;;;;19.90;54.80;;;;;;5026769;28;19924;-53
2021/05/24 03:59:46;;;;;;;;;;;19.90;54.80;;;;;;5030241;28;19920;-54
2021/05/24 04:02:11;;;;;;;;;;;19.90;54.80;;;;;;5025569;28;19925;-57
2021/05/24 04:04:38;;;;;;;;;;;19.90;54.80;;;;;;5022480;28;19963;-54
2021/05/24 04:07:05;;;;;;;;;;;19.90;54.90;;;;;;5032768;28;20888;-53
2021/05/24 04:09:30;;;;;;;;;;;19.90;54.90;;;;;;5031334;28;19920;-54
2021/05/24 04:11:56;;;;;;;;;;;19.90;54.90;;;;;;5029978;28;20059;-52
2021/05/24 04:14:21;;;;;;;;;;;19.90;54.90;;;;;;5035284;28;20553;-55
2021/05/24 04:16:47;;;;;;;;;;;19.90;54.90;;;;;;5039073;28;19963;-56
2021/05/24 04:19:12;;;;;;;;;;;19.90;54.80;;;;;;5040089;28;19917;-52
2021/05/24 04:21:42;;;;;;;;;;;19.90;54.80;;;;;;5026799;28;19951;-51
2021/05/24 04:24:08;;;;;;;;;;;19.90;54.80;;;;;;5028268;28;19947;-58
2021/05/24 04:26:33;;;;;;;;;;;19.90;54.80;;;;;;5033614;28;20361;-52
2021/05/24 04:28:59;;;;;;;;;;;19.90;54.80;;;;;;5017722;28;19916;-56
2021/05/24 04:31:24;;;;;;;;;;;19.90;54.70;;;;;;5031730;28;19917;-53
2021/05/24 04:33:50;;;;;;;;;;;20.00;54.80;;;;;;5032588;28;20659;-55
2021/05/24 04:36:15;;;;;;;;;;;20.00;54.70;;;;;;5036925;28;19931;-55
2021/05/24 04:38:41;;;;;;;;;;;20.00;54.80;;;;;;5044094;28;19930;-56
2021/05/24 04:41:06;;;;;;;;;;;20.00;54.80;;;;;;5005383;28;20501;-55
2021/05/24 04:43:34;;;;;;;;;;;20.00;54.90;;;;;;5035030;28;19917;-53
2021/05/24 04:45:59;;;;;;;;;;;20.00;54.90;;;;;;5032713;28;19932;-56
2021/05/24 04:48:24;;;;;;;;;;;20.00;54.90;;;;;;5040733;28;19924;-50
2021/05/24 04:50:50;;;;;;;;;;;20.00;54.90;;;;;;5034046;28;19917;-51
2021/05/24 04:53:16;;;;;;;;;;;20.00;54.90;;;;;;5016937;28;20046;-55
2021/05/24 04:55:41;;;;;;;;;;;19.90;54.90;;;;;;5038728;28;19925;-53
2021/05/24 04:58:07;;;;;;;;;;;20.00;55.00;;;;;;5038568;28;19925;-55
2021/05/24 05:00:33;;;;;;;;;;;20.00;55.00;;;;;;5031157;28;19944;-54
2021/05/24 05:02:59;;;;;;;;;;;20.00;55.00;;;;;;5022057;28;19956;-56
2021/05/24 05:05:25;;;;;;;;;;;20.00;55.00;;;;;;5036375;28;19917;-54
2021/05/24 05:07:50;;;;;;;;;;;20.00;55.00;;;;;;5025960;28;19925;-55
2021/05/24 05:10:16;;;;;;;;;;;20.00;55.00;;;;;;5025727;28;19917;-55
2021/05/24 05:12:41;;;;;;;;;;;20.00;55.00;;;;;;5033082;28;19916;-51
2021/05/24 05:15:07;;;;;;;;;;;20.00;55.10;;;;;;5026670;28;19924;-57
2021/05/24 05:17:32;;;;;;;;;;;20.00;55.00;;;;;;5027203;28;19936;-54
2021/05/24 05:19:58;;;;;;;;;;;20.00;55.00;;;;;;5014725;28;19917;-55
2021/05/24 05:22:23;;;;;;;;;;;20.00;55.00;;;;;;5031115;28;20577;-58
2021/05/24 05:24:49;;;;;;;;;;;20.00;55.00;;;;;;5027813;28;19917;-58
2021/05/24 05:27:14;;;;;;;;;;;20.00;55.00;;;;;;5032758;28;19983;-57
2021/05/24 05:29:40;;;;;;;;;;;20.00;54.90;;;;;;5031623;28;19917;-58
2021/05/24 05:32:05;;;;;;;;;;;20.00;54.90;;;;;;5032060;28;19939;-58
2021/05/24 05:34:31;;;;;;;;;;;20.00;54.90;;;;;;5031032;28;20015;-55
2021/05/24 05:36:56;;;;;;;;;;;20.00;54.90;;;;;;5035942;28;19983;-53
2021/05/24 05:39:21;;;;;;;;;;;20.00;55.00;;;;;;5028412;28;19948;-57
2021/05/24 05:41:47;;;;;;;;;;;20.00;55.00;;;;;;5028734;28;19972;-54
2021/05/24 05:44:12;;;;;;;;;;;20.00;54.90;;;;;;5013716;28;19925;-55
2021/05/24 05:46:38;;;;;;;;;;;20.00;54.90;;;;;;5020616;28;19974;-56
2021/05/24 05:49:03;;;;;;;;;;;20.00;55.00;;;;;;5031471;28;19917;-56
2021/05/24 05:51:29;;;;;;;;;;;20.00;55.00;;;;;;5029465;28;19917;-57
2021/05/24 05:53:56;;;;;;;;;;;20.00;55.00;;;;;;5028338;28;19924;-53
2021/05/24 05:56:21;;;;;;;;;;;20.00;55.10;;;;;;5022971;28;20337;-55
2021/05/24 05:58:47;;;;;;;;;;;19.90;55.00;;;;;;5038723;28;19916;-53
2021/05/24 06:01:12;;;;;;;;;;;20.00;55.00;;;;;;5025475;28;20361;-52
2021/05/24 06:03:37;;;;;;;;;;;19.90;54.90;;;;;;5019372;28;19933;-54
2021/05/24 06:06:03;;;;;;;;;;;20.00;55.00;;;;;;5037110;28;19917;-54
2021/05/24 06:08:29;;;;;;;;;;;20.00;54.90;;;;;;5021325;28;19921;-53
2021/05/24 06:10:56;;;;;;;;;;;20.00;54.90;;;;;;5029649;28;20462;-53
2021/05/24 06:13:22;;;;;;;;;;;20.00;54.90;;;;;;5026392;28;19979;-55
2021/05/24 06:15:47;;;;;;;;;;;20.00;54.90;;;;;;5010174;28;19925;-53
2021/05/24 06:18:13;;;;;;;;;;;20.00;54.90;;;;;;5016166;28;20412;-56
2021/05/24 06:20:38;;;;;;;;;;;20.00;55.10;;;;;;5035147;28;19952;-52
2021/05/24 06:23:04;;;;;;;;;;;20.00;55.30;;;;;;5030007;28;19921;-55
2021/05/24 06:25:30;;;;;;;;;;;19.90;55.40;;;;;;5031461;28;19931;-53
2021/05/24 06:27:56;;;;;;;;;;;19.90;55.80;;;;;;5037074;28;19925;-51
2021/05/24 06:30:21;;;;;;;;;;;19.80;56.00;;;;;;5032615;28;19931;-51
2021/05/24 06:32:47;;;;;;;;;;;19.80;56.10;;;;;;5030657;28;19917;-54
2021/05/24 06:35:12;;;;;;;;;;;19.80;56.50;;;;;;5028332;28;19927;-56
2021/05/24 06:37:38;;;;;;;;;;;19.80;57.00;;;;;;5037732;28;19921;-55
2021/05/24 06:40:04;;;;;;;;;;;19.80;57.50;;;;;;5011974;28;20382;-54
2021/05/24 06:42:29;;;;;;;;;;;19.80;57.70;;;;;;5036298;28;19918;-54
2021/05/24 06:44:55;;;;;;;;;;;19.90;57.50;;;;;;5034767;28;19927;-56
2021/05/24 06:47:23;;;;;;;;;;;19.90;57.30;;;;;;5038074;28;19916;-56
2021/05/24 06:49:48;;;;;;;;;;;19.90;57.10;;;;;;5035755;28;19936;-51
2021/05/24 06:52:13;;;;;;;;;;;19.90;56.90;;;;;;5035743;28;19925;-56
2021/05/24 06:54:39;;;;;;;;;;;19.90;56.70;;;;;;5029045;28;19924;-55
2021/05/24 06:57:06;;;;;;;;;;;19.90;56.60;;;;;;5033724;28;19967;-54
2021/05/24 06:59:31;;;;;;;;;;;19.90;56.60;;;;;;5037773;28;19924;-57
2021/05/24 07:01:59;;;;;;;;;;;19.90;56.40;;;;;;5037612;28;19924;-55
2021/05/24 07:04:24;;;;;;;;;;;19.90;56.40;;;;;;5031298;28;20383;-55
2021/05/24 07:06:49;;;;;;;;;;;20.00;56.30;;;;;;5027422;28;19917;-56
2021/05/24 07:09:15;;;;;;;;;;;20.00;56.20;;;;;;5026717;28;19917;-54
2021/05/24 07:11:40;;;;;;;;;;;20.00;56.30;;;;;;5027677;28;19967;-55
2021/05/24 07:14:06;;;;;;;;;;;20.00;56.90;;;;;;5027453;28;19917;-56
2021/05/24 07:16:31;;;;;;;;;;;20.00;57.10;;;;;;5025396;28;20431;-56
2021/05/24 07:18:57;;;;;;;;;;;20.00;57.20;;;;;;5034970;28;19917;-53
2021/05/24 07:21:22;;;;;;;;;;;20.00;57.40;;;;;;5028930;28;19921;-53
2021/05/24 07:23:48;;;;;;;;;;;20.00;57.30;;;;;;5031917;28;20379;-53
2021/05/24 07:26:13;;;;;;;;;;;20.00;57.30;;;;;;5012170;28;19959;-55
2021/05/24 07:28:39;;;;;;;;;;;20.00;57.30;;;;;;5028668;28;20629;-53
2021/05/24 07:31:04;;;;;;;;;;;20.00;57.10;;;;;;5024356;28;19917;-54
2021/05/24 07:33:30;;;;;;;;;;;20.00;57.10;;;;;;5015937;28;19920;-52
2021/05/24 07:35:55;;;;;;;;;;;20.00;57.10;;;;;;5004332;28;19929;-53
2021/05/24 07:38:21;;;;;;;;;;;20.00;56.90;;;;;;5032706;28;19921;-55
2021/05/24 07:40:46;;;;;;;;;;;20.00;57.10;;;;;;5012511;28;19921;-52
2021/05/24 07:43:12;;;;;;;;;;;20.00;57.00;;;;;;5035949;28;19932;-54
2021/05/24 07:45:37;;;;;;;;;;;20.00;56.90;;;;;;5026538;28;19917;-54
2021/05/24 07:48:03;;;;;;;;;;;20.00;57.20;;;;;;5022772;28;20060;-56
2021/05/24 07:50:28;;;;;;;;;;;20.00;57.20;;;;;;5007387;28;19972;-54
2021/05/24 07:52:54;;;;;;;;;;;20.00;57.20;;;;;;5024918;28;19917;-55
2021/05/24 07:55:19;;;;;;;;;;;20.00;57.40;;;;;;5025484;28;21105;-56
2021/05/24 07:57:44;;;;;;;;;;;20.00;57.30;;;;;;5029773;28;19917;-53
2021/05/24 08:00:10;;;;;;;;;;;20.00;57.40;;;;;;5022627;28;19925;-55
2021/05/24 08:02:39;;;;;;;;;;;20.00;57.20;;;;;;5022875;28;19924;-55
2021/05/24 08:05:05;;;;;;;;;;;20.00;57.20;;;;;;5015743;28;20538;-54
2021/05/24 08:07:30;;;;;;;;;;;20.00;57.20;;;;;;5014248;28;19917;-53
2021/05/24 08:09:56;;;;;;;;;;;20.00;57.30;;;;;;5026458;28;19921;-53
2021/05/24 08:12:21;;;;;;;;;;;20.00;57.30;;;;;;5024099;28;20699;-55
2021/05/24 08:14:46;;;;;;;;;;;20.00;57.70;;;;;;5029524;28;20027;-56
2021/05/24 08:17:12;;;;;;;;;;;20.00;57.70;;;;;;5032958;28;19920;-55
2021/05/24 08:19:38;;;;;;;;;;;20.00;57.80;;;;;;5033815;28;19921;-56
2021/05/24 08:22:03;;;;;;;;;;;20.00;57.80;;;;;;5021959;28;19925;-53
2021/05/24 08:24:29;;;;;;;;;;;20.00;58.00;;;;;;5026403;28;20287;-52
2021/05/24 08:26:54;;;;;;;;;;;20.00;58.00;;;;;;5023841;28;19944;-56
2021/05/24 08:29:20;;;;;;;;;;;20.00;57.90;;;;;;5023450;28;19923;-54
2021/05/24 08:31:45;;;;;;;;;;;20.00;57.90;;;;;;5027003;28;19947;-54
2021/05/24 08:34:11;;;;;;;;;;;20.00;57.80;;;;;;5031466;28;19955;-55
2021/05/24 08:36:36;;;;;;;;;;;20.10;57.80;;;;;;5034182;28;19920;-55
2021/05/24 08:39:03;;;;;;;;;;;20.00;57.50;;;;;;5030212;28;19923;-54
2021/05/24 08:41:29;;;;;;;;;;;20.00;57.40;;;;;;5018930;28;19928;-53
2021/05/24 08:43:55;;;;;;;;;;;20.00;57.30;;;;;;5011849;28;19931;-55
2021/05/24 08:46:20;;;;;;;;;;;20.10;57.20;;;;;;5033005;28;19917;-54
2021/05/24 08:48:46;;;;;;;;;;;20.10;57.10;;;;;;5022650;28;19924;-56
2021/05/24 08:51:11;;;;;;;;;;;20.10;57.10;;;;;;5026052;28;19925;-53
2021/05/24 08:53:37;;;;;;;;;;;20.00;57.30;;;;;;5033056;28;20003;-54
2021/05/24 08:56:03;;;;;;;;;;;20.00;57.50;;;;;;5024255;28;19921;-54
2021/05/24 08:58:28;;;;;;;;;;;20.00;57.50;;;;;;5011867;28;19924;-54
2021/05/24 09:00:54;;;;;;;;;;;20.00;57.40;;;;;;5011968;28;19917;-53
2021/05/24 09:03:20;;;;;;;;;;;20.00;56.90;;;;;;5009771;28;19935;-54
2021/05/24 09:05:46;;;;;;;;;;;20.10;56.60;;;;;;5034886;28;19948;-53
2021/05/24 09:08:11;;;;;;;;;;;20.00;56.40;;;;;;5028809;28;19973;-53
2021/05/24 09:10:37;;;;;;;;;;;20.00;56.20;;;;;;5013884;28;20397;-54
2021/05/24 09:13:07;;;;;;;;;;;20.00;55.80;;;;;;5002273;28;19917;-54
2021/05/24 09:15:33;;;;;;;;;;;20.00;55.50;;;;;;5034438;28;19922;-55
2021/05/24 09:18:00;;;;;;;;;;;20.00;55.50;;;;;;5023906;22;20015;-68
2021/05/24 09:20:26;;;;;;;;;;;20.00;56.50;;;;;;5030485;28;19920;-68
2021/05/24 09:23:10;;;;;;;;;;;19.90;55.80;;;;;;5032094;28;19920;-68
2021/05/24 09:25:48;;;;;;;;;;;19.80;55.00;;;;;;5032701;28;19921;-68
2021/05/24 09:28:33;;;;;;;;;;;19.80;51.70;;;;;;5053358;28;19920;-67
2021/05/24 09:30:59;;;;;;;;;;;19.80;52.40;;;;;;5049294;28;19960;-68
2021/05/24 09:33:25;;;;;;;;;;;19.70;52.80;;;;;;5041322;28;20011;-68
2021/05/24 09:35:51;;;;;;;;;;;19.70;51.10;;;;;;5044926;28;20017;-68
2021/05/24 09:38:20;;;;;;;;;;;19.70;48.90;;;;;;5056193;28;19917;-68
2021/05/24 09:40:51;;;;;;;;;;;19.70;51.90;;;;;;5046158;28;19925;-68
2021/05/24 09:43:17;;;;;;;;;;;19.60;51.80;;;;;;5055844;28;20507;-68
2021/05/24 09:45:42;;;;;;;;;;;19.60;49.30;;;;;;5048945;28;19919;-69
2021/05/24 09:48:08;;;;;;;;;;;19.60;46.30;;;;;;5056960;28;20475;-69
2021/05/24 09:50:35;;;;;;;;;;;19.60;48.40;;;;;;5053305;28;19912;-68
2021/05/24 09:53:01;;;;;;;;;;;19.50;49.60;;;;;;5044586;28;20003;-68
2021/05/24 09:55:28;;;;;;;;;;;19.50;49.90;;;;;;5029763;28;20549;-68
2021/05/24 09:57:54;;;;;;;;;;;19.50;49.20;;;;;;5061675;28;19995;-66
2021/05/24 10:00:23;;;;;;;;;;;19.50;47.60;;;;;;5007534;28;19913;-68
2021/05/24 10:02:49;;;;;;;;;;;19.50;48.80;;;;;;5020718;28;19960;-69
2021/05/24 10:05:15;;;;;;;;;;;19.50;49.30;;;;;;5053781;28;19999;-69
2021/05/24 10:07:40;;;;;;;;;;;19.50;47.20;;;;;;5038062;28;19928;-69
2021/05/24 10:10:06;;;;;;;;;;;19.50;49.40;;;;;;5056727;28;19913;-68
2021/05/24 10:12:32;;;;;;;;;;;19.50;48.60;;;;;;5049373;28;20438;-68
2021/05/24 10:14:59;;;;;;;;;;;19.50;48.40;;;;;;5023300;28;19923;-69
2021/05/24 10:17:25;;;;;;;;;;;19.60;48.20;;;;;;5037183;28;20180;-68
2021/05/24 10:19:50;;;;;;;;;;;19.60;47.20;;;;;;5053424;28;19913;-69
2021/05/24 10:22:16;;;;;;;;;;;19.60;46.20;;;;;;5050439;28;19974;-69
2021/05/24 10:24:41;;;;;;;;;;;19.60;46.20;;;;;;5026419;28;20296;-69
2021/05/24 10:27:07;;;;;;;;;;;19.60;47.60;;;;;;5050525;28;20547;-68
2021/05/24 10:29:32;;;;;;;;;;;19.50;47.70;;;;;;5016157;28;19958;-68
2021/05/24 10:31:59;;;;;;;;;;;19.50;46.40;;;;;;5052073;28;19924;-68
2021/05/24 10:34:24;;;;;;;;;;;19.50;46.30;;;;;;5020579;28;19912;-68
2021/05/24 10:37:06;;;;;;;;;;;19.50;47.30;;;;;;5057289;28;20634;-68
2021/05/24 10:39:45;;;;;;;;;;;19.50;47.80;;;;;;5043685;28;19920;-69
2021/05/24 10:42:13;;;;;;;;;;;19.40;47.70;;;;;;5044498;28;19976;-69
2021/05/24 10:44:40;;;;;;;;;;;19.40;48.00;;;;;;5050478;28;19908;-69
2021/05/24 10:47:18;;;;;;;;;;;19.40;47.70;;;;;;5048842;28;19917;-69
2021/05/24 10:50:03;;;;;;;;;;;19.40;46.10;;;;;;5058921;28;19912;-69
2021/05/24 10:52:29;;;;;;;;;;;19.40;45.10;;;;;;5049507;28;19909;-68
2021/05/24 10:54:55;;;;;;;;;;;19.50;45.80;;;;;;5029742;28;19916;-69
2021/05/24 10:57:20;;;;;;;;;;;19.50;41.50;;;;;;5033610;28;19909;-68
2021/05/24 10:59:50;;;;;;;;;;;19.50;45.20;;;;;;5025867;28;19913;-70
2021/05/24 11:02:28;;;;;;;;;;;19.40;47.00;;;;;;5044419;28;20028;-69
2021/05/24 11:04:58;;;;;;;;;;;19.40;47.40;;;;;;5054291;28;20028;-70
2021/05/24 11:07:24;;;;;;;;;;;19.40;49.00;;;;;;5053191;28;19913;-70
2021/05/24 11:09:50;;;;;;;;;;;19.40;49.40;;;;;;5036409;28;19915;-71
2021/05/24 11:12:27;;;;;;;;;;;19.50;47.60;;;;;;5050194;28;19995;-70
2021/05/24 11:15:05;;;;;;;;;;;19.40;48.70;;;;;;5036318;28;20264;-70
2021/05/24 11:17:49;;;;;;;;;;;19.50;46.80;;;;;;5056846;28;19982;-70
2021/05/24 11:20:25;;;;;;;;;;;19.50;48.10;;;;;;5044706;28;19909;-68
2021/05/24 11:23:09;;;;;;;;;;;19.50;48.00;;;;;;5032776;28;19909;-70
2021/05/24 11:28:19;;;;;;;;;;;19.50;48.00;;;;;;5047201;28;19966;-69
2021/05/24 11:30:45;;;;;;;;;;;19.50;48.60;;;;;;5040343;28;19917;-69
2021/05/24 11:33:29;;;;;;;;;;;19.60;46.00;;;;;;5027502;28;19996;-72
2021/05/24 11:35:55;;;;;;;;;;;19.50;46.80;;;;;;5044625;28;19920;-68
2021/05/24 11:38:27;;;;;;;;;;;19.50;48.90;;;;;;5050587;28;19951;-70
2021/05/24 11:41:08;;;;;;;;;;;19.40;49.40;;;;;;5054940;28;20267;-69
2021/05/24 11:43:34;;;;;;;;;;;19.40;49.60;;;;;;5042976;28;19962;-69
2021/05/24 11:46:03;;;;;;;;;;;19.40;50.40;;;;;;5050068;28;19916;-72
2021/05/24 11:48:35;;;;;;;;;;;19.40;50.80;;;;;;5047926;28;19943;-71
2021/05/24 11:51:03;;;;;;;;;;;19.50;49.10;;;;;;5039267;28;19947;-71
2021/05/24 11:53:29;;;;;;;;;;;19.50;49.20;;;;;;5050133;28;19913;-71
2021/05/24 11:56:04;;;;;;;;;;;19.50;47.30;;;;;;5012534;28;19927;-71
2021/05/24 11:58:30;;;;;;;;;;;19.60;48.50;;;;;;5014832;28;19909;-70
2021/05/24 12:01:01;;;;;;;;;;;19.60;48.50;;;;;;5043612;28;19919;-70
2021/05/24 12:03:26;;;;;;;;;;;19.50;49.30;;;;;;5032124;28;19909;-70
2021/05/24 12:05:55;;;;;;;;;;;19.50;50.20;;;;;;5040840;28;19917;-70
2021/05/24 12:08:20;;;;;;;;;;;19.50;44.60;;;;;;5028937;28;19996;-69
2021/05/24 12:10:49;;;;;;;;;;;19.60;45.60;;;;;;5039955;28;19908;-69
2021/05/24 12:13:15;;;;;;;;;;;19.50;47.90;;;;;;5050338;28;19995;-69
2021/05/24 12:15:41;;;;;;;;;;;19.40;48.90;;;;;;5050355;28;20053;-68
2021/05/24 12:18:06;;;;;;;;;;;19.40;49.00;;;;;;5026952;28;19917;-69
2021/05/24 12:20:32;;;;;;;;;;;19.50;49.30;;;;;;5046068;28;20263;-69
2021/05/24 12:22:57;;;;;;;;;;;19.40;49.50;;;;;;5026020;28;19913;-71
2021/05/24 12:25:24;;;;;;;;;;;19.40;49.40;;;;;;5034100;28;19913;-71
2021/05/24 12:27:50;;;;;;;;;;;19.40;49.10;;;;;;5044523;28;20628;-69
2021/05/24 12:30:16;;;;;;;;;;;19.50;47.70;;;;;;5049635;28;20019;-69
2021/05/24 12:32:54;;;;;;;;;;;19.50;47.70;;;;;;5055090;28;19916;-68
2021/05/24 12:35:19;;;;;;;;;;;19.60;48.70;;;;;;5051943;28;19935;-67
2021/05/24 12:37:49;;;;;;;;;;;19.60;48.00;;;;;;5042013;28;19909;-68
2021/05/24 12:40:15;;;;;;;;;;;19.70;46.70;;;;;;5034025;28;19991;-68
2021/05/24 12:42:41;;;;;;;;;;;19.80;45.40;;;;;;5059431;28;19991;-68
2021/05/24 12:45:08;;;;;;;;;;;19.60;47.40;;;;;;5052866;28;19913;-68
2021/05/24 12:47:33;;;;;;;;;;;19.60;48.10;;;;;;5048979;28;19963;-67
2021/05/24 12:50:08;;;;;;;;;;;19.60;47.30;;;;;;5029155;28;19908;-68
2021/05/24 12:52:33;;;;;;;;;;;19.60;46.20;;;;;;5031981;28;19912;-69
2021/05/24 12:55:07;;;;;;;;;;;19.50;48.80;;;;;;5047431;28;19908;-68
2021/05/24 12:57:33;;;;;;;;;;;19.50;49.50;;;;;;5055640;28;19959;-68
2021/05/24 12:59:58;;;;;;;;;;;19.60;50.50;;;;;;5034520;28;20333;-68
2021/05/24 13:02:25;;;;;;;;;;;19.60;47.80;;;;;;5037939;28;20040;-68
2021/05/24 13:04:50;;;;;;;;;;;19.60;47.70;;;;;;5036080;28;19936;-68
2021/05/24 13:07:16;;;;;;;;;;;19.60;49.90;;;;;;5053676;28;19908;-68
2021/05/24 13:09:44;;;;;;;;;;;19.50;51.40;;;;;;5055843;28;19915;-68
2021/05/24 13:12:32;;;;;;;;;;;19.60;46.40;;;;;;5032481;28;19915;-68
2021/05/24 13:14:58;;;;;;;;;;;19.70;45.40;;;;;;5033978;28;20372;-67
2021/05/24 13:17:29;;;;;;;;;;;19.70;44.30;;;;;;5046446;28;19920;-67
2021/05/24 13:22:56;;;;;;;;;;;19.60;43.60;;;;;;5051895;28;19908;-67
2021/05/24 13:28:15;;;;;;;;;;;19.60;45.90;;;;;;5031052;28;19916;-67
2021/05/24 13:30:43;;;;;;;;;;;19.60;46.90;;;;;;5042848;28;19908;-67
2021/05/24 13:33:27;;;;;;;;;;;19.60;47.00;;;;;;5055927;28;20396;-67
2021/05/24 13:35:52;;;;;;;;;;;19.60;46.30;;;;;;5043047;28;19947;-69
2021/05/24 13:38:17;;;;;;;;;;;19.60;46.70;;;;;;5037569;28;19955;-70
2021/05/24 13:40:43;;;;;;;;;;;19.60;46.40;;;;;;5053506;28;19908;-66
2021/05/24 13:43:08;;;;;;;;;;;19.50;48.30;;;;;;5014319;28;20522;-67
2021/05/24 13:45:34;;;;;;;;;;;19.50;47.60;;;;;;5050930;28;19908;-66
2021/05/24 13:47:59;;;;;;;;;;;19.60;47.70;;;;;;5037198;28;19920;-65
2021/05/24 13:50:25;;;;;;;;;;;19.50;48.90;;;;;;5067456;28;19923;-67
2021/05/24 13:52:50;;;;;;;;;;;19.50;47.30;;;;;;5048417;28;20302;-68
2021/05/24 13:55:16;;;;;;;;;;;19.50;44.90;;;;;;5054119;28;20563;-65
2021/05/24 13:57:41;;;;;;;;;;;19.60;47.60;;;;;;5051985;28;19912;-66
2021/05/24 14:00:07;;;;;;;;;;;19.60;47.60;;;;;;5032957;28;19966;-68
2021/05/24 14:02:33;;;;;;;;;;;19.60;48.90;;;;;;5048204;28;19915;-67
2021/05/24 14:04:58;;;;;;;;;;;19.60;47.40;;;;;;5034621;28;19921;-65
2021/05/24 14:07:24;;;;;;;;;;;19.70;47.00;;;;;;5031806;28;19921;-67
2021/05/24 14:09:49;;;;;;;;;;;19.60;48.20;;;;;;5049103;28;19912;-67
2021/05/24 14:12:15;;;;;;;;;;;19.50;49.20;;;;;;5056313;28;19912;-68
2021/05/24 14:14:40;;;;;;;;;;;19.60;49.80;;;;;;5054041;28;19939;-68
2021/05/24 14:17:06;;;;;;;;;;;19.60;48.60;;;;;;5028934;28;19921;-66
2021/05/24 14:19:31;;;;;;;;;;;19.70;48.00;;;;;;5021566;28;20357;-66
2021/05/24 14:21:57;;;;;;;;;;;19.60;49.50;;;;;;5057161;28;19931;-66